sensor_id;sensor_type;location;lat;lon;timestamp;pressure;altitude;pressure_sealevel;temperature;humidity
16580;BME280;8402;51.466;6.806;2022-12-18T00:00:06;102611.41;;;-5.41;89.36
16580;BME280;8402;51.466;6.806;2022-12-18T00:02:34;102620.34;;;-5.42;89.64
16580;BME280;8402;51.466;6.806;2022-12-18T00:05:02;102618.69;;;-5.43;89.69
16580;BME280;8402;51.466;6.806;2022-12-18T00:07:30;102633.69;;;-5.43;89.01
16580;BME280;8402;51.466;6.806;2022-12-18T00:09:58;102639.16;;;-5.45;89.56
16580;BME280;8402;51.466;6.806;2022-12-18T00:12:27;102642.81;;;-5.46;88.95
16580;BME280;8402;51.466;6.806;2022-12-18T00:14:55;102636.84;;;-5.48;88.81
16580;BME280;8402;51.466;6.806;2022-12-18T00:17:23;102635.19;;;-5.49;88.75
16580;BME280;8402;51.466;6.806;2022-12-18T00:19:51;102634.38;;;-5.49;89.35
16580;BME280;8402;51.466;6.806;2022-12-18T00:22:19;102624.28;;;-5.46;89.21
16580;BME280;8402;51.466;6.806;2022-12-18T00:24:47;102615.34;;;-5.45;89.31
16580;BME280;8402;51.466;6.806;2022-12-18T00:27:15;102609.75;;;-5.42;89.15
16580;BME280;8402;51.466;6.806;2022-12-18T00:29:44;102604.47;;;-5.42;89.13
16580;BME280;8402;51.466;6.806;2022-12-18T00:32:12;102601.81;;;-5.42;89.26
16580;BME280;8402;51.466;6.806;2022-12-18T00:34:40;102608.09;;;-5.43;89.46
16580;BME280;8402;51.466;6.806;2022-12-18T00:37:08;102612.72;;;-5.45;89.05
16580;BME280;8402;51.466;6.806;2022-12-18T00:39:42;102610.41;;;-5.48;88.68
16580;BME280;8402;51.466;6.806;2022-12-18T00:42:10;102611.53;;;-5.50;88.92
16580;BME280;8402;51.466;6.806;2022-12-18T00:44:57;102615.50;;;-5.55;88.87
16580;BME280;8402;51.466;6.806;2022-12-18T00:47:25;102623.59;;;-5.56;88.92
16580;BME280;8402;51.466;6.806;2022-12-18T00:49:53;102629.91;;;-5.57;88.74
16580;BME280;8402;51.466;6.806;2022-12-18T00:52:21;102632.84;;;-5.60;88.61
16580;BME280;8402;51.466;6.806;2022-12-18T00:54:48;102621.91;;;-5.65;88.46
16580;BME280;8402;51.466;6.806;2022-12-18T00:57:16;102621.25;;;-5.67;88.73
16580;BME280;8402;51.466;6.806;2022-12-18T00:59:44;102619.59;;;-5.68;88.48
16580;BME280;8402;51.466;6.806;2022-12-18T01:02:13;102621.59;;;-5.70;88.91
16580;BME280;8402;51.466;6.806;2022-12-18T01:04:41;102623.41;;;-5.71;89.00
16580;BME280;8402;51.466;6.806;2022-12-18T01:07:09;102625.22;;;-5.71;89.00
16580;BME280;8402;51.466;6.806;2022-12-18T01:09:37;102628.81;;;-5.72;88.95
16580;BME280;8402;51.466;6.806;2022-12-18T01:12:06;102621.88;;;-5.73;88.67
16580;BME280;8402;51.466;6.806;2022-12-18T01:14:34;102622.22;;;-5.76;88.85
16580;BME280;8402;51.466;6.806;2022-12-18T01:17:02;102616.09;;;-5.77;88.99
16580;BME280;8402;51.466;6.806;2022-12-18T01:19:31;102618.75;;;-5.77;88.82
16580;BME280;8402;51.466;6.806;2022-12-18T01:21:59;102615.59;;;-5.81;88.24
16580;BME280;8402;51.466;6.806;2022-12-18T01:24:27;102616.56;;;-5.82;88.41
16580;BME280;8402;51.466;6.806;2022-12-18T01:26:55;102610.63;;;-5.84;88.20
16580;BME280;8402;51.466;6.806;2022-12-18T01:29:24;102604.00;;;-5.88;88.73
16580;BME280;8402;51.466;6.806;2022-12-18T01:31:54;102615.56;;;-5.89;88.37
16580;BME280;8402;51.466;6.806;2022-12-18T01:34:23;102620.50;;;-5.94;88.39
16580;BME280;8402;51.466;6.806;2022-12-18T01:36:52;102615.56;;;-5.97;88.68
16580;BME280;8402;51.466;6.806;2022-12-18T01:39:20;102612.25;;;-5.99;88.44
16580;BME280;8402;51.466;6.806;2022-12-18T01:41:48;102607.97;;;-6.00;88.93
16580;BME280;8402;51.466;6.806;2022-12-18T01:45:00;102613.91;;;-5.98;88.95
16580;BME280;8402;51.466;6.806;2022-12-18T01:47:39;102601.06;;;-5.93;89.09
16580;BME280;8402;51.466;6.806;2022-12-18T01:50:13;102604.34;;;-5.91;89.11
16580;BME280;8402;51.466;6.806;2022-12-18T01:52:47;102605.97;;;-5.90;89.11
16580;BME280;8402;51.466;6.806;2022-12-18T01:55:19;102614.72;;;-5.89;88.75
16580;BME280;8402;51.466;6.806;2022-12-18T01:57:49;102614.94;;;-5.91;88.58
16580;BME280;8402;51.466;6.806;2022-12-18T02:00:20;102605.97;;;-5.90;88.47
16580;BME280;8402;51.466;6.806;2022-12-18T02:02:49;102613.28;;;-5.92;88.53
16580;BME280;8402;51.466;6.806;2022-12-18T02:05:19;102611.63;;;-5.93;88.20
16580;BME280;8402;51.466;6.806;2022-12-18T02:08:02;102608.63;;;-5.98;88.00
16580;BME280;8402;51.466;6.806;2022-12-18T02:10:38;102613.91;;;-5.98;88.43
16580;BME280;8402;51.466;6.806;2022-12-18T02:13:14;102614.91;;;-5.99;88.92
16580;BME280;8402;51.466;6.806;2022-12-18T02:15:51;102616.72;;;-5.99;88.53
16580;BME280;8402;51.466;6.806;2022-12-18T02:18:26;102619.50;;;-6.01;88.85
16580;BME280;8402;51.466;6.806;2022-12-18T02:21:00;102617.19;;;-6.04;88.17
16580;BME280;8402;51.466;6.806;2022-12-18T02:23:44;102614.34;;;-6.11;87.91
16580;BME280;8402;51.466;6.806;2022-12-18T02:26:18;102607.56;;;-6.13;88.32
16580;BME280;8402;51.466;6.806;2022-12-18T02:28:52;102589.38;;;-6.16;88.45
16580;BME280;8402;51.466;6.806;2022-12-18T02:31:24;102592.34;;;-6.19;88.52
16580;BME280;8402;51.466;6.806;2022-12-18T02:33:55;102588.03;;;-6.20;88.34
16580;BME280;8402;51.466;6.806;2022-12-18T02:36:25;102588.34;;;-6.23;88.37
16580;BME280;8402;51.466;6.806;2022-12-18T02:38:55;102592.31;;;-6.27;88.32
16580;BME280;8402;51.466;6.806;2022-12-18T02:41:25;102600.22;;;-6.27;88.58
16580;BME280;8402;51.466;6.806;2022-12-18T02:43:56;102604.81;;;-6.29;88.42
16580;BME280;8402;51.466;6.806;2022-12-18T02:46:31;102611.09;;;-6.30;88.64
16580;BME280;8402;51.466;6.806;2022-12-18T02:49:12;102608.44;;;-6.30;88.64
16580;BME280;8402;51.466;6.806;2022-12-18T02:51:49;102610.09;;;-6.29;88.72
16580;BME280;8402;51.466;6.806;2022-12-18T02:54:26;102603.16;;;-6.30;88.81
16580;BME280;8402;51.466;6.806;2022-12-18T02:57:07;102606.78;;;-6.31;88.68
16580;BME280;8402;51.466;6.806;2022-12-18T02:59:41;102607.63;;;-6.31;88.72
16580;BME280;8402;51.466;6.806;2022-12-18T03:02:20;102613.72;;;-6.30;88.75
16580;BME280;8402;51.466;6.806;2022-12-18T03:04:54;102604.16;;;-6.31;88.83
16580;BME280;8402;51.466;6.806;2022-12-18T03:07:30;102603.50;;;-6.33;88.99
16580;BME280;8402;51.466;6.806;2022-12-18T03:10:02;102608.44;;;-6.30;89.13
16580;BME280;8402;51.466;6.806;2022-12-18T03:12:35;102594.94;;;-6.27;89.19
16580;BME280;8402;51.466;6.806;2022-12-18T03:15:09;102585.69;;;-6.23;88.96
16580;BME280;8402;51.466;6.806;2022-12-18T03:17:46;102581.09;;;-6.21;88.92
16580;BME280;8402;51.466;6.806;2022-12-18T03:20:19;102577.09;;;-6.25;88.37
16580;BME280;8402;51.466;6.806;2022-12-18T03:22:50;102586.19;;;-6.28;88.73
16580;BME280;8402;51.466;6.806;2022-12-18T03:25:20;102586.19;;;-6.28;88.84
16580;BME280;8402;51.466;6.806;2022-12-18T03:27:55;102582.03;;;-6.30;88.44
16580;BME280;8402;51.466;6.806;2022-12-18T03:30:25;102573.13;;;-6.29;88.66
16580;BME280;8402;51.466;6.806;2022-12-18T03:33:00;102576.75;;;-6.30;88.58
16580;BME280;8402;51.466;6.806;2022-12-18T03:35:33;102582.19;;;-6.32;88.31
16580;BME280;8402;51.466;6.806;2022-12-18T03:38:02;102584.34;;;-6.35;88.07
16580;BME280;8402;51.466;6.806;2022-12-18T03:40:37;102582.66;;;-6.37;88.76
16580;BME280;8402;51.466;6.806;2022-12-18T03:43:11;102581.00;;;-6.38;88.35
16580;BME280;8402;51.466;6.806;2022-12-18T03:45:49;102576.88;;;-6.40;88.47
16580;BME280;8402;51.466;6.806;2022-12-18T03:48:22;102586.78;;;-6.42;88.54
16580;BME280;8402;51.466;6.806;2022-12-18T03:50:57;102580.81;;;-6.44;88.14
16580;BME280;8402;51.466;6.806;2022-12-18T03:53:32;102579.97;;;-6.45;88.73
16580;BME280;8402;51.466;6.806;2022-12-18T03:56:04;102578.31;;;-6.46;89.19
16580;BME280;8402;51.466;6.806;2022-12-18T03:58:35;102582.63;;;-6.45;89.02
16580;BME280;8402;51.466;6.806;2022-12-18T04:01:08;102573.38;;;-6.49;88.30
16580;BME280;8402;51.466;6.806;2022-12-18T04:03:37;102566.44;;;-6.50;88.71
16580;BME280;8402;51.466;6.806;2022-12-18T04:06:07;102560.47;;;-6.52;88.64
16580;BME280;8402;51.466;6.806;2022-12-18T04:08:35;102561.28;;;-6.51;89.03
16580;BME280;8402;51.466;6.806;2022-12-18T04:11:03;102563.78;;;-6.50;89.20
16580;BME280;8402;51.466;6.806;2022-12-18T04:13:35;102568.38;;;-6.52;89.24
16580;BME280;8402;51.466;6.806;2022-12-18T04:16:04;102562.94;;;-6.50;89.21
16580;BME280;8402;51.466;6.806;2022-12-18T04:18:33;102572.53;;;-6.49;89.43
16580;BME280;8402;51.466;6.806;2022-12-18T04:21:01;102566.44;;;-6.50;89.42
16580;BME280;8402;51.466;6.806;2022-12-18T04:23:28;102568.09;;;-6.49;89.42
16580;BME280;8402;51.466;6.806;2022-12-18T04:25:56;102566.44;;;-6.50;89.86
16580;BME280;8402;51.466;6.806;2022-12-18T04:28:24;102568.09;;;-6.49;89.47
16580;BME280;8402;51.466;6.806;2022-12-18T04:30:53;102556.69;;;-6.49;89.39
16580;BME280;8402;51.466;6.806;2022-12-18T04:33:22;102566.09;;;-6.47;90.01
16580;BME280;8402;51.466;6.806;2022-12-18T04:35:49;102557.72;;;-6.42;90.58
16580;BME280;8402;51.466;6.806;2022-12-18T04:38:17;102558.22;;;-6.39;90.14
16580;BME280;8402;51.466;6.806;2022-12-18T04:40:45;102554.28;;;-6.34;90.36
16580;BME280;8402;51.466;6.806;2022-12-18T04:43:13;102554.28;;;-6.34;89.87
16580;BME280;8402;51.466;6.806;2022-12-18T04:45:41;102552.47;;;-6.34;89.74
16580;BME280;8402;51.466;6.806;2022-12-18T04:48:10;102550.00;;;-6.35;89.85
16580;BME280;8402;51.466;6.806;2022-12-18T04:50:38;102543.72;;;-6.34;89.96
16580;BME280;8402;51.466;6.806;2022-12-18T04:53:06;102553.47;;;-6.35;89.75
16580;BME280;8402;51.466;6.806;2022-12-18T04:55:35;102550.97;;;-6.37;89.82
16580;BME280;8402;51.466;6.806;2022-12-18T04:58:04;102550.97;;;-6.37;89.76
16580;BME280;8402;51.466;6.806;2022-12-18T05:00:31;102550.97;;;-6.37;89.94
16580;BME280;8402;51.466;6.806;2022-12-18T05:03:00;102545.69;;;-6.37;89.70
16580;BME280;8402;51.466;6.806;2022-12-18T05:05:30;102543.19;;;-6.38;89.57
16580;BME280;8402;51.466;6.806;2022-12-18T05:07:58;102537.41;;;-6.42;89.43
16580;BME280;8402;51.466;6.806;2022-12-18T05:10:27;102537.41;;;-6.42;89.74
16580;BME280;8402;51.466;6.806;2022-12-18T05:13:03;102532.13;;;-6.42;89.46
16580;BME280;8402;51.466;6.806;2022-12-18T05:15:32;102531.59;;;-6.45;89.69
16580;BME280;8402;51.466;6.806;2022-12-18T05:18:01;102531.13;;;-6.49;89.25
16580;BME280;8402;51.466;6.806;2022-12-18T05:20:31;102541.69;;;-6.49;89.37
16580;BME280;8402;51.466;6.806;2022-12-18T05:22:59;102539.03;;;-6.49;89.99
16580;BME280;8402;51.466;6.806;2022-12-18T05:25:27;102535.56;;;-6.49;89.85
16580;BME280;8402;51.466;6.806;2022-12-18T05:27:55;102537.22;;;-6.48;89.62
16580;BME280;8402;51.466;6.806;2022-12-18T05:30:23;102536.41;;;-6.49;89.54
16580;BME280;8402;51.466;6.806;2022-12-18T05:32:51;102546.97;;;-6.49;89.50
16580;BME280;8402;51.466;6.806;2022-12-18T05:35:19;102545.59;;;-6.53;89.06
16580;BME280;8402;51.466;6.806;2022-12-18T05:37:48;102548.56;;;-6.56;89.17
16580;BME280;8402;51.466;6.806;2022-12-18T05:40:16;102551.22;;;-6.56;89.85
16580;BME280;8402;51.466;6.806;2022-12-18T05:42:43;102549.56;;;-6.57;89.34
16580;BME280;8402;51.466;6.806;2022-12-18T05:45:11;102551.22;;;-6.56;89.56
16580;BME280;8402;51.466;6.806;2022-12-18T05:47:39;102552.19;;;-6.57;89.44
16580;BME280;8402;51.466;6.806;2022-12-18T05:50:07;102561.78;;;-6.56;89.50
16580;BME280;8402;51.466;6.806;2022-12-18T05:52:36;102562.59;;;-6.55;89.44
16580;BME280;8402;51.466;6.806;2022-12-18T05:55:06;102569.31;;;-6.61;89.47
16580;BME280;8402;51.466;6.806;2022-12-18T05:57:34;102572.94;;;-6.62;89.66
16580;BME280;8402;51.466;6.806;2022-12-18T06:00:02;102579.56;;;-6.58;90.43
16580;BME280;8402;51.466;6.806;2022-12-18T06:02:30;102582.56;;;-6.53;90.60
16580;BME280;8402;51.466;6.806;2022-12-18T06:04:58;102584.75;;;-6.48;90.04
16580;BME280;8402;51.466;6.806;2022-12-18T06:07:26;102594.16;;;-6.46;90.20
16580;BME280;8402;51.466;6.806;2022-12-18T06:09:53;102595.00;;;-6.45;89.13
16580;BME280;8402;51.466;6.806;2022-12-18T06:12:23;102610.00;;;-6.46;89.64
16580;BME280;8402;51.466;6.806;2022-12-18T06:14:51;102615.28;;;-6.46;89.59
16580;BME280;8402;51.466;6.806;2022-12-18T06:17:18;102611.66;;;-6.45;89.85
16580;BME280;8402;51.466;6.806;2022-12-18T06:19:46;102610.00;;;-6.46;89.12
16580;BME280;8402;51.466;6.806;2022-12-18T06:22:14;102601.44;;;-6.48;88.98
16580;BME280;8402;51.466;6.806;2022-12-18T06:24:43;102606.72;;;-6.48;89.32
16580;BME280;8402;51.466;6.806;2022-12-18T06:27:11;102605.34;;;-6.52;88.75
16580;BME280;8402;51.466;6.806;2022-12-18T06:29:40;102602.03;;;-6.54;89.18
16580;BME280;8402;51.466;6.806;2022-12-18T06:32:08;102592.63;;;-6.56;89.43
16580;BME280;8402;51.466;6.806;2022-12-18T06:34:37;102592.75;;;-6.58;89.30
16580;BME280;8402;51.466;6.806;2022-12-18T06:37:04;102595.41;;;-6.58;89.73
16580;BME280;8402;51.466;6.806;2022-12-18T06:39:32;102580.56;;;-6.59;89.41
16580;BME280;8402;51.466;6.806;2022-12-18T06:42:00;102583.19;;;-6.59;89.46
16580;BME280;8402;51.466;6.806;2022-12-18T06:44:28;102578.91;;;-6.60;88.88
16580;BME280;8402;51.466;6.806;2022-12-18T06:46:58;102572.94;;;-6.62;89.10
16580;BME280;8402;51.466;6.806;2022-12-18T06:49:25;102571.31;;;-6.63;89.14
16580;BME280;8402;51.466;6.806;2022-12-18T06:51:56;102571.44;;;-6.65;88.99
16580;BME280;8402;51.466;6.806;2022-12-18T06:54:24;102567.13;;;-6.66;88.99
16580;BME280;8402;51.466;6.806;2022-12-18T06:56:52;102562.69;;;-6.65;89.33
16580;BME280;8402;51.466;6.806;2022-12-18T06:59:22;102563.50;;;-6.65;89.43
16580;BME280;8402;51.466;6.806;2022-12-18T07:01:50;102539.91;;;-6.66;89.11
16580;BME280;8402;51.466;6.806;2022-12-18T07:04:19;102549.47;;;-6.65;89.35
16580;BME280;8402;51.466;6.806;2022-12-18T07:06:47;102545.19;;;-6.66;88.94
16580;BME280;8402;51.466;6.806;2022-12-18T07:09:15;102539.91;;;-6.66;89.10
16580;BME280;8402;51.466;6.806;2022-12-18T07:11:42;102537.44;;;-6.68;89.12
16580;BME280;8402;51.466;6.806;2022-12-18T07:14:10;102541.06;;;-6.69;89.01
16580;BME280;8402;51.466;6.806;2022-12-18T07:16:38;102559.72;;;-6.70;88.94
16580;BME280;8402;51.466;6.806;2022-12-18T07:19:07;102561.34;;;-6.69;88.82
16580;BME280;8402;51.466;6.806;2022-12-18T07:21:36;102556.06;;;-6.69;89.25
16580;BME280;8402;51.466;6.806;2022-12-18T07:24:05;102557.41;;;-6.65;89.12
16580;BME280;8402;51.466;6.806;2022-12-18T07:26:33;102557.09;;;-6.62;89.16
16580;BME280;8402;51.466;6.806;2022-12-18T07:29:01;102548.88;;;-6.59;89.25
16580;BME280;8402;51.466;6.806;2022-12-18T07:31:29;102546.06;;;-6.57;89.25
16580;BME280;8402;51.466;6.806;2022-12-18T07:33:57;102539.00;;;-6.57;89.03
16580;BME280;8402;51.466;6.806;2022-12-18T07:36:25;102534.00;;;-6.60;88.85
16580;BME280;8402;51.466;6.806;2022-12-18T07:38:54;102521.81;;;-6.61;89.03
16580;BME280;8402;51.466;6.806;2022-12-18T07:41:22;102533.19;;;-6.60;88.56
16580;BME280;8402;51.466;6.806;2022-12-18T07:43:50;102529.06;;;-6.63;88.50
16580;BME280;8402;51.466;6.806;2022-12-18T07:46:18;102534.47;;;-6.65;88.71
16580;BME280;8402;51.466;6.806;2022-12-18T07:48:46;102546.84;;;-6.65;89.04
16580;BME280;8402;51.466;6.806;2022-12-18T07:51:16;102554.94;;;-6.67;89.07
16580;BME280;8402;51.466;6.806;2022-12-18T07:53:44;102551.63;;;-6.69;88.66
16580;BME280;8402;51.466;6.806;2022-12-18T07:56:16;102543.88;;;-6.70;89.01
16580;BME280;8402;51.466;6.806;2022-12-18T07:58:53;102541.22;;;-6.70;88.79
16580;BME280;8402;51.466;6.806;2022-12-18T08:01:21;102547.50;;;-6.71;88.68
16580;BME280;8402;51.466;6.806;2022-12-18T08:03:49;102538.88;;;-6.73;88.52
16580;BME280;8402;51.466;6.806;2022-12-18T08:06:17;102534.75;;;-6.76;88.26
16580;BME280;8402;51.466;6.806;2022-12-18T08:08:51;102530.63;;;-6.78;88.92
16580;BME280;8402;51.466;6.806;2022-12-18T08:11:20;102529.63;;;-6.77;88.91
16580;BME280;8402;51.466;6.806;2022-12-18T08:13:48;102512.81;;;-6.76;89.12
16580;BME280;8402;51.466;6.806;2022-12-18T08:16:17;102511.81;;;-6.75;89.33
16580;BME280;8402;51.466;6.806;2022-12-18T08:18:46;102515.44;;;-6.76;89.14
16580;BME280;8402;51.466;6.806;2022-12-18T08:21:17;102508.34;;;-6.76;89.24
16580;BME280;8402;51.466;6.806;2022-12-18T08:23:47;102510.81;;;-6.74;89.25
16580;BME280;8402;51.466;6.806;2022-12-18T08:26:17;102504.72;;;-6.75;89.25
16580;BME280;8402;51.466;6.806;2022-12-18T08:28:48;102499.97;;;-6.71;89.40
16580;BME280;8402;51.466;6.806;2022-12-18T08:31:17;102483.81;;;-6.68;89.37
16580;BME280;8402;51.466;6.806;2022-12-18T08:33:48;102485.16;;;-6.64;89.45
16580;BME280;8402;51.466;6.806;2022-12-18T08:36:16;102481.53;;;-6.63;89.52
16580;BME280;8402;51.466;6.806;2022-12-18T08:38:44;102473.28;;;-6.60;89.71
16580;BME280;8402;51.466;6.806;2022-12-18T08:41:14;102476.59;;;-6.58;90.02
16580;BME280;8402;51.466;6.806;2022-12-18T08:43:43;102469.19;;;-6.54;90.09
16580;BME280;8402;51.466;6.806;2022-12-18T08:46:34;102469.38;;;-6.48;90.23
16580;BME280;8402;51.466;6.806;2022-12-18T08:49:03;102490.88;;;-6.43;90.63
16580;BME280;8402;51.466;6.806;2022-12-18T08:51:32;102478.34;;;-6.32;91.16
16580;BME280;8402;51.466;6.806;2022-12-18T08:54:00;102481.00;;;-6.24;91.48
16580;BME280;8402;51.466;6.806;2022-12-18T08:56:29;102484.38;;;-6.14;91.36
16580;BME280;8402;51.466;6.806;2022-12-18T08:58:57;102488.84;;;-6.06;91.05
16580;BME280;8402;51.466;6.806;2022-12-18T09:01:25;102482.88;;;-6.00;91.02
16580;BME280;8402;51.466;6.806;2022-12-18T09:03:55;102481.41;;;-5.95;90.96
16580;BME280;8402;51.466;6.806;2022-12-18T09:06:23;102469.53;;;-5.91;90.92
16580;BME280;8402;51.466;6.806;2022-12-18T09:08:53;102465.53;;;-5.87;91.86
16580;BME280;8402;51.466;6.806;2022-12-18T09:11:23;102457.94;;;-5.82;91.63
16580;BME280;8402;51.466;6.806;2022-12-18T09:13:51;102450.38;;;-5.76;91.98
16580;BME280;8402;51.466;6.806;2022-12-18T09:16:21;102449.84;;;-5.72;93.20
16580;BME280;8402;51.466;6.806;2022-12-18T09:18:59;102456.66;;;-5.69;92.39
16580;BME280;8402;51.466;6.806;2022-12-18T09:21:28;102457.94;;;-5.65;92.77
16580;BME280;8402;51.466;6.806;2022-12-18T09:23:58;102447.72;;;-5.60;92.94
16580;BME280;8402;51.466;6.806;2022-12-18T09:26:26;102451.34;;;-5.53;93.29
16580;BME280;8402;51.466;6.806;2022-12-18T09:28:54;102448.53;;;-5.43;94.56
16580;BME280;8402;51.466;6.806;2022-12-18T09:31:24;102445.06;;;-5.36;94.71
16580;BME280;8402;51.466;6.806;2022-12-18T09:33:52;102448.03;;;-5.31;94.17
16580;BME280;8402;51.466;6.806;2022-12-18T09:36:23;102441.75;;;-5.21;95.44
16580;BME280;8402;51.466;6.806;2022-12-18T09:38:51;102454.97;;;-5.13;95.59
16580;BME280;8402;51.466;6.806;2022-12-18T09:41:32;102452.28;;;-5.05;96.30
16580;BME280;8402;51.466;6.806;2022-12-18T09:44:04;102460.88;;;-4.95;96.13
16580;BME280;8402;51.466;6.806;2022-12-18T09:46:36;102445.47;;;-4.83;97.97
16580;BME280;8402;51.466;6.806;2022-12-18T09:49:10;102443.25;;;-4.63;97.59
16580;BME280;8402;51.466;6.806;2022-12-18T09:51:45;102429.44;;;-4.20;97.87
16580;BME280;8402;51.466;6.806;2022-12-18T09:54:21;102419.97;;;-3.91;96.34
16580;BME280;8402;51.466;6.806;2022-12-18T09:56:52;102409.91;;;-3.58;96.91
16580;BME280;8402;51.466;6.806;2022-12-18T09:59:24;102409.22;;;-3.37;97.82
16580;BME280;8402;51.466;6.806;2022-12-18T10:02:14;102413.00;;;-3.17;95.26
16580;BME280;8402;51.466;6.806;2022-12-18T10:04:50;102412.56;;;-3.06;94.70
16580;BME280;8402;51.466;6.806;2022-12-18T10:07:34;102409.09;;;-2.91;94.77
16580;BME280;8402;51.466;6.806;2022-12-18T10:10:11;102395.50;;;-2.67;93.13
16580;BME280;8402;51.466;6.806;2022-12-18T10:12:46;102393.00;;;-2.54;93.64
16580;BME280;8402;51.466;6.806;2022-12-18T10:15:24;102398.00;;;-2.44;93.07
16580;BME280;8402;51.466;6.806;2022-12-18T10:17:58;102399.72;;;-2.36;92.35
16580;BME280;8402;51.466;6.806;2022-12-18T10:20:36;102384.06;;;-2.31;92.27
16580;BME280;8402;51.466;6.806;2022-12-18T10:23:16;102380.25;;;-2.22;92.12
16580;BME280;8402;51.466;6.806;2022-12-18T10:25:53;102381.22;;;-2.08;92.15
16580;BME280;8402;51.466;6.806;2022-12-18T10:28:24;102373.41;;;-1.88;91.52
16580;BME280;8402;51.466;6.806;2022-12-18T10:30:53;102370.06;;;-1.76;91.12
16580;BME280;8402;51.466;6.806;2022-12-18T10:33:23;102364.84;;;-1.62;91.35
16580;BME280;8402;51.466;6.806;2022-12-18T10:35:53;102356.13;;;-1.50;92.10
16580;BME280;8402;51.466;6.806;2022-12-18T10:38:29;102358.81;;;-1.43;91.91
16580;BME280;8402;51.466;6.806;2022-12-18T10:41:02;102356.84;;;-1.34;91.83
16580;BME280;8402;51.466;6.806;2022-12-18T10:43:31;102367.19;;;-1.18;89.89
16580;BME280;8402;51.466;6.806;2022-12-18T10:46:16;102358.66;;;-1.07;89.32
16580;BME280;8402;51.466;6.806;2022-12-18T10:48:56;102350.72;;;-0.94;90.19
16580;BME280;8402;51.466;6.806;2022-12-18T10:51:27;102342.41;;;-0.77;89.18
16580;BME280;8402;51.466;6.806;2022-12-18T10:54:01;102339.78;;;-0.64;88.75
16580;BME280;8402;51.466;6.806;2022-12-18T10:56:35;102341.41;;;-0.63;87.92
16580;BME280;8402;51.466;6.806;2022-12-18T10:59:12;102337.97;;;-0.57;87.07
16580;BME280;8402;51.466;6.806;2022-12-18T11:01:51;102333.00;;;-0.60;86.98
16580;BME280;8402;51.466;6.806;2022-12-18T11:04:22;102333.47;;;-0.50;86.22
16580;BME280;8402;51.466;6.806;2022-12-18T11:06:58;102325.28;;;-0.42;86.26
16580;BME280;8402;51.466;6.806;2022-12-18T11:09:29;102326.09;;;-0.35;85.93
16580;BME280;8402;51.466;6.806;2022-12-18T11:11:59;102323.63;;;-0.30;86.28
16580;BME280;8402;51.466;6.806;2022-12-18T11:14:30;102326.94;;;-0.21;85.54
16580;BME280;8402;51.466;6.806;2022-12-18T11:17:00;102318.97;;;-0.14;84.63
16580;BME280;8402;51.466;6.806;2022-12-18T11:19:52;102315.88;;;-0.11;85.27
16580;BME280;8402;51.466;6.806;2022-12-18T11:22:23;102306.25;;;0.01;83.85
16580;BME280;8402;51.466;6.806;2022-12-18T11:24:56;102307.25;;;0.07;84.54
16580;BME280;8402;51.466;6.806;2022-12-18T11:27:48;102304.38;;;0.15;85.57
16580;BME280;8402;51.466;6.806;2022-12-18T11:30:25;102293.28;;;0.18;83.87
16580;BME280;8402;51.466;6.806;2022-12-18T11:32:57;102290.00;;;0.22;83.46
16580;BME280;8402;51.466;6.806;2022-12-18T11:35:35;102282.38;;;0.26;82.89
16580;BME280;8402;51.466;6.806;2022-12-18T11:38:12;102283.81;;;0.35;83.03
16580;BME280;8402;51.466;6.806;2022-12-18T11:40:47;102270.88;;;0.45;82.47
16580;BME280;8402;51.466;6.806;2022-12-18T11:43:18;102264.88;;;0.50;83.71
16580;BME280;8402;51.466;6.806;2022-12-18T11:45:51;102264.03;;;0.56;81.67
16580;BME280;8402;51.466;6.806;2022-12-18T11:48:22;102256.66;;;0.58;81.48
16580;BME280;8402;51.466;6.806;2022-12-18T11:50:53;102262.00;;;0.58;82.74
16580;BME280;8402;51.466;6.806;2022-12-18T11:53:22;102258.47;;;0.64;81.89
16580;BME280;8402;51.466;6.806;2022-12-18T11:56:03;102268.16;;;0.65;81.46
16580;BME280;8402;51.466;6.806;2022-12-18T11:58:45;102264.00;;;0.69;81.19
16580;BME280;8402;51.466;6.806;2022-12-18T12:01:34;102266.03;;;0.80;80.11
16580;BME280;8402;51.466;6.806;2022-12-18T12:04:34;102262.91;;;0.83;80.95
16580;BME280;8402;51.466;6.806;2022-12-18T12:07:16;102262.50;;;0.93;82.36
16580;BME280;8402;51.466;6.806;2022-12-18T12:09:54;102253.81;;;0.98;82.65
16580;BME280;8402;51.466;6.806;2022-12-18T12:12:36;102256.09;;;1.01;82.97
16580;BME280;8402;51.466;6.806;2022-12-18T12:15:26;102255.84;;;1.09;80.96
16580;BME280;8402;51.466;6.806;2022-12-18T12:18:00;102252.72;;;1.12;81.77
16580;BME280;8402;51.466;6.806;2022-12-18T12:20:44;102263.00;;;1.15;79.32
16580;BME280;8402;51.466;6.806;2022-12-18T12:23:25;102246.53;;;1.18;79.84
16580;BME280;8402;51.466;6.806;2022-12-18T12:25:59;102226.94;;;1.24;80.76
16580;BME280;8402;51.466;6.806;2022-12-18T12:28:52;102224.28;;;1.24;78.69
16580;BME280;8402;51.466;6.806;2022-12-18T12:31:32;102221.38;;;1.26;78.17
16580;BME280;8402;51.466;6.806;2022-12-18T12:34:11;102233.50;;;1.28;80.22
16580;BME280;8402;51.466;6.806;2022-12-18T12:36:53;102240.06;;;1.32;80.19
16580;BME280;8402;51.466;6.806;2022-12-18T12:39:29;102240.25;;;1.37;78.71
16580;BME280;8402;51.466;6.806;2022-12-18T12:41:58;102226.00;;;1.44;80.46
16580;BME280;8402;51.466;6.806;2022-12-18T12:44:49;102221.84;;;1.48;79.03
16580;BME280;8402;51.466;6.806;2022-12-18T12:47:25;102225.97;;;1.50;78.94
16580;BME280;8402;51.466;6.806;2022-12-18T12:49:56;102216.50;;;1.48;79.73
16580;BME280;8402;51.466;6.806;2022-12-18T12:52:30;102211.75;;;1.50;79.82
16580;BME280;8402;51.466;6.806;2022-12-18T12:55:02;102209.50;;;1.47;79.38
16580;BME280;8402;51.466;6.806;2022-12-18T12:57:41;102215.47;;;1.49;79.20
16580;BME280;8402;51.466;6.806;2022-12-18T13:00:16;102215.47;;;1.49;79.56
16580;BME280;8402;51.466;6.806;2022-12-18T13:02:50;102214.63;;;1.48;78.65
16580;BME280;8402;51.466;6.806;2022-12-18T13:05:24;102222.88;;;1.47;78.15
16580;BME280;8402;51.466;6.806;2022-12-18T13:07:56;102220.00;;;1.48;76.47
16580;BME280;8402;51.466;6.806;2022-12-18T13:10:32;102214.84;;;1.47;77.18
16580;BME280;8402;51.466;6.806;2022-12-18T13:13:02;102212.78;;;1.49;77.88
16580;BME280;8402;51.466;6.806;2022-12-18T13:15:37;102207.66;;;1.47;77.40
16580;BME280;8402;51.466;6.806;2022-12-18T13:18:18;102206.47;;;1.43;76.98
16580;BME280;8402;51.466;6.806;2022-12-18T13:20:49;102203.56;;;1.45;77.91
16580;BME280;8402;51.466;6.806;2022-12-18T13:23:29;102197.00;;;1.41;76.83
16580;BME280;8402;51.466;6.806;2022-12-18T13:25:59;102191.66;;;1.41;76.84